Terminal Aerodrome Forecast
Issued by NWS

Home | Current Version | Previous Version | Graphics & Text | Print | Product List | Glossary On
Versions: 1 2 3 4 5 6 7 8 9 10 11 12 13 14 15 16 17 18 19
000
FTUS41 KCLE 201400 AAA
TAFFDY
TAF AMD
KFDY 201402Z 2014/2112 00000KT 3SM BR BKN004
     FM201500 13003KT P6SM BKN008
     FM201600 13003KT P6SM BKN025
     FM201800 13004KT P6SM BKN035
     FM202100 17004KT P6SM SCT250
     FM210600 VRB03KT 4SM BR SKC=

USA.gov is the U.S. government's official web portal to all federal, state and local government web resources and services.